Main page
METAR-TAF:

METAR-TAF

Airports :

Blackpool Airport

Blackpool, England

latitude: 53-46N, longitude: 003-02W, elevation: 10 m

Current weather observation

The report was made 27 minutes ago, at 09:20 UTC
Wind 14 kt from the South/Southeast
Temperature 13°C
Humidity 77%
Pressure 992 hPa
Visibility 10 km or more
Few clouds at a height of 2000 ft

METAR: EGNH 090920Z 16014KT 9999 FEW020 13/09 Q0992

Time: 10:47 (09:47 UTC)

Forecast

The report was made 1 hour and 46 minutes ago, at 08:01 UTC
Forecast valid from 09 at 09 UTC to 09 at 18 UTC
Wind 9 kt from the South
Visibility 10 km or more
Scattered clouds at a height of 3000 ft
Probability 30% :
Temporary
from 09 at 12 UTC to 09 at 18 UTC
Visibility: 8000 m
light rain showers

TAF: EGNH 090801Z 0909/0918 19009KT 9999 SCT030 PROB30 TEMPO 0912/0918 8000 -SHRA

Weather observations and forecasts of more than 4000 airports (METAR and TAF reports).

The available stations are represented by yellow and red dots on the map.

Hover mouse over dot to see the name of the station.

Then click to see weather observations and forecasts.

To change the map : click on the green buttons with a black cross to zoom in, on the green button with a dash to zoom out, or on the green arrows for adjacent maps.


METAR-TAF: